sensor_id;sensor_type;location;lat;lon;timestamp;P1;durP1;ratioP1;P2;durP2;ratioP2
21099;SDS011;10708;50.824;4.408;2023-03-11T00:03:41;14.57;;;13.47;;
21099;SDS011;10708;50.824;4.408;2023-03-11T00:08:43;9.30;;;8.83;;
21099;SDS011;10708;50.824;4.408;2023-03-11T00:13:46;10.03;;;9.47;;
21099;SDS011;10708;50.824;4.408;2023-03-11T00:18:50;9.43;;;8.97;;
21099;SDS011;10708;50.824;4.408;2023-03-11T00:23:52;13.47;;;12.47;;
21099;SDS011;10708;50.824;4.408;2023-03-11T00:28:55;20.23;;;14.73;;
21099;SDS011;10708;50.824;4.408;2023-03-11T00:33:58;14.67;;;13.50;;
21099;SDS011;10708;50.824;4.408;2023-03-11T00:39:01;9.93;;;8.73;;
21099;SDS011;10708;50.824;4.408;2023-03-11T00:44:06;11.70;;;11.10;;
21099;SDS011;10708;50.824;4.408;2023-03-11T00:49:09;14.40;;;13.17;;
21099;SDS011;10708;50.824;4.408;2023-03-11T00:54:12;15.97;;;11.23;;
21099;SDS011;10708;50.824;4.408;2023-03-11T00:59:14;13.80;;;12.57;;
21099;SDS011;10708;50.824;4.408;2023-03-11T01:04:18;18.67;;;16.87;;
21099;SDS011;10708;50.824;4.408;2023-03-11T01:09:20;16.00;;;12.97;;
21099;SDS011;10708;50.824;4.408;2023-03-11T01:14:22;16.43;;;15.13;;
21099;SDS011;10708;50.824;4.408;2023-03-11T01:19:26;15.13;;;13.93;;
21099;SDS011;10708;50.824;4.408;2023-03-11T01:24:28;14.53;;;13.27;;
21099;SDS011;10708;50.824;4.408;2023-03-11T01:29:31;12.50;;;11.07;;
21099;SDS011;10708;50.824;4.408;2023-03-11T01:34:34;11.23;;;10.50;;
21099;SDS011;10708;50.824;4.408;2023-03-11T01:39:36;11.47;;;10.77;;
21099;SDS011;10708;50.824;4.408;2023-03-11T01:44:39;13.20;;;12.07;;
21099;SDS011;10708;50.824;4.408;2023-03-11T01:49:42;15.63;;;13.40;;
21099;SDS011;10708;50.824;4.408;2023-03-11T01:54:45;23.80;;;16.23;;
21099;SDS011;10708;50.824;4.408;2023-03-11T01:59:48;24.67;;;13.13;;
21099;SDS011;10708;50.824;4.408;2023-03-11T02:04:54;341.63;;;110.23;;
21099;SDS011;10708;50.824;4.408;2023-03-11T02:09:57;414.37;;;128.87;;
21099;SDS011;10708;50.824;4.408;2023-03-11T02:14:59;19.30;;;14.30;;
21099;SDS011;10708;50.824;4.408;2023-03-11T02:20:07;190.90;;;88.83;;
21099;SDS011;10708;50.824;4.408;2023-03-11T02:25:20;212.65;;;93.65;;
21099;SDS011;10708;50.824;4.408;2023-03-11T02:30:32;280.93;;;118.77;;
21099;SDS011;10708;50.824;4.408;2023-03-11T02:35:35;302.90;;;123.03;;
21099;SDS011;10708;50.824;4.408;2023-03-11T02:40:45;297.23;;;120.43;;
21099;SDS011;10708;50.824;4.408;2023-03-11T02:45:52;313.40;;;121.53;;
21099;SDS011;10708;50.824;4.408;2023-03-11T02:50:56;310.97;;;123.83;;
21099;SDS011;10708;50.824;4.408;2023-03-11T02:55:59;312.87;;;121.27;;
21099;SDS011;10708;50.824;4.408;2023-03-11T03:01:03;300.23;;;119.90;;
21099;SDS011;10708;50.824;4.408;2023-03-11T03:06:05;300.03;;;127.20;;
21099;SDS011;10708;50.824;4.408;2023-03-11T03:11:08;294.97;;;128.07;;
21099;SDS011;10708;50.824;4.408;2023-03-11T03:16:12;293.10;;;121.30;;
21099;SDS011;10708;50.824;4.408;2023-03-11T03:21:14;297.93;;;121.17;;
21099;SDS011;10708;50.824;4.408;2023-03-11T03:26:16;301.77;;;123.20;;
21099;SDS011;10708;50.824;4.408;2023-03-11T03:31:20;298.40;;;129.63;;
21099;SDS011;10708;50.824;4.408;2023-03-11T03:36:23;284.67;;;123.13;;
21099;SDS011;10708;50.824;4.408;2023-03-11T03:41:25;294.43;;;121.07;;
21099;SDS011;10708;50.824;4.408;2023-03-11T03:46:29;296.40;;;121.20;;
21099;SDS011;10708;50.824;4.408;2023-03-11T03:51:31;302.30;;;123.77;;
21099;SDS011;10708;50.824;4.408;2023-03-11T03:56:34;292.97;;;119.57;;
21099;SDS011;10708;50.824;4.408;2023-03-11T04:01:38;291.67;;;121.00;;
21099;SDS011;10708;50.824;4.408;2023-03-11T04:06:41;303.17;;;121.37;;
21099;SDS011;10708;50.824;4.408;2023-03-11T04:11:43;301.63;;;123.70;;
21099;SDS011;10708;50.824;4.408;2023-03-11T04:16:47;312.63;;;119.30;;
21099;SDS011;10708;50.824;4.408;2023-03-11T04:21:49;293.63;;;120.20;;
21099;SDS011;10708;50.824;4.408;2023-03-11T04:26:51;286.63;;;124.20;;
21099;SDS011;10708;50.824;4.408;2023-03-11T04:31:55;279.47;;;117.47;;
21099;SDS011;10708;50.824;4.408;2023-03-11T04:36:57;285.77;;;118.10;;
21099;SDS011;10708;50.824;4.408;2023-03-11T04:42:00;287.13;;;122.77;;
21099;SDS011;10708;50.824;4.408;2023-03-11T04:47:03;290.07;;;118.43;;
21099;SDS011;10708;50.824;4.408;2023-03-11T04:52:06;287.77;;;123.47;;
21099;SDS011;10708;50.824;4.408;2023-03-11T04:57:08;279.90;;;120.83;;
21099;SDS011;10708;50.824;4.408;2023-03-11T05:02:12;274.03;;;128.97;;
21099;SDS011;10708;50.824;4.408;2023-03-11T05:07:14;274.53;;;125.57;;
21099;SDS011;10708;50.824;4.408;2023-03-11T05:12:17;273.00;;;122.10;;
21099;SDS011;10708;50.824;4.408;2023-03-11T05:17:20;274.60;;;123.53;;
21099;SDS011;10708;50.824;4.408;2023-03-11T05:22:24;297.80;;;121.83;;
21099;SDS011;10708;50.824;4.408;2023-03-11T05:27:26;263.80;;;117.37;;
21099;SDS011;10708;50.824;4.408;2023-03-11T05:32:30;264.80;;;116.30;;
21099;SDS011;10708;50.824;4.408;2023-03-11T05:37:33;269.20;;;118.43;;
21099;SDS011;10708;50.824;4.408;2023-03-11T05:42:38;263.53;;;119.30;;
21099;SDS011;10708;50.824;4.408;2023-03-11T05:47:43;260.63;;;117.43;;
21099;SDS011;10708;50.824;4.408;2023-03-11T05:52:45;275.80;;;119.27;;
21099;SDS011;10708;50.824;4.408;2023-03-11T05:57:49;298.00;;;121.07;;
21099;SDS011;10708;50.824;4.408;2023-03-11T06:02:53;275.53;;;121.73;;
21099;SDS011;10708;50.824;4.408;2023-03-11T06:07:55;274.20;;;120.73;;
21099;SDS011;10708;50.824;4.408;2023-03-11T06:12:58;273.37;;;121.13;;
21099;SDS011;10708;50.824;4.408;2023-03-11T06:18:01;270.50;;;117.93;;
21099;SDS011;10708;50.824;4.408;2023-03-11T06:23:04;260.97;;;117.87;;
21099;SDS011;10708;50.824;4.408;2023-03-11T06:28:06;262.27;;;118.70;;
21099;SDS011;10708;50.824;4.408;2023-03-11T06:33:10;264.47;;;118.80;;
21099;SDS011;10708;50.824;4.408;2023-03-11T06:38:13;263.47;;;118.93;;
21099;SDS011;10708;50.824;4.408;2023-03-11T06:43:16;271.30;;;120.97;;
21099;SDS011;10708;50.824;4.408;2023-03-11T06:48:20;265.33;;;118.77;;
21099;SDS011;10708;50.824;4.408;2023-03-11T06:53:22;203.60;;;93.77;;
21099;SDS011;10708;50.824;4.408;2023-03-11T06:58:25;272.90;;;121.30;;
21099;SDS011;10708;50.824;4.408;2023-03-11T07:03:29;271.57;;;122.67;;
21099;SDS011;10708;50.824;4.408;2023-03-11T07:08:32;284.23;;;130.27;;
21099;SDS011;10708;50.824;4.408;2023-03-11T07:13:34;290.20;;;128.83;;
21099;SDS011;10708;50.824;4.408;2023-03-11T07:18:38;288.17;;;126.27;;
21099;SDS011;10708;50.824;4.408;2023-03-11T07:23:41;289.70;;;125.70;;
21099;SDS011;10708;50.824;4.408;2023-03-11T07:28:44;291.30;;;124.17;;
21099;SDS011;10708;50.824;4.408;2023-03-11T07:33:48;296.40;;;122.67;;
21099;SDS011;10708;50.824;4.408;2023-03-11T07:38:53;287.83;;;123.73;;
21099;SDS011;10708;50.824;4.408;2023-03-11T07:43:58;297.17;;;125.60;;
21099;SDS011;10708;50.824;4.408;2023-03-11T07:49:03;308.77;;;130.83;;
21099;SDS011;10708;50.824;4.408;2023-03-11T07:54:05;315.47;;;123.60;;
21099;SDS011;10708;50.824;4.408;2023-03-11T07:59:08;325.10;;;124.20;;
21099;SDS011;10708;50.824;4.408;2023-03-11T08:04:12;357.73;;;137.53;;
21099;SDS011;10708;50.824;4.408;2023-03-11T08:09:16;410.57;;;134.27;;
21099;SDS011;10708;50.824;4.408;2023-03-11T08:14:19;475.03;;;141.90;;
21099;SDS011;10708;50.824;4.408;2023-03-11T08:19:22;32.60;;;29.63;;
21099;SDS011;10708;50.824;4.408;2023-03-11T08:24:25;39.00;;;35.47;;
21099;SDS011;10708;50.824;4.408;2023-03-11T08:29:27;47.43;;;43.37;;
21099;SDS011;10708;50.824;4.408;2023-03-11T08:34:31;45.03;;;40.93;;
21099;SDS011;10708;50.824;4.408;2023-03-11T08:39:34;67.67;;;61.60;;
21099;SDS011;10708;50.824;4.408;2023-03-11T08:44:36;81.87;;;76.03;;
21099;SDS011;10708;50.824;4.408;2023-03-11T08:49:41;85.70;;;79.70;;
21099;SDS011;10708;50.824;4.408;2023-03-11T08:54:43;86.57;;;79.70;;
21099;SDS011;10708;50.824;4.408;2023-03-11T08:59:46;81.83;;;77.10;;
21099;SDS011;10708;50.824;4.408;2023-03-11T09:04:49;76.83;;;71.93;;
21099;SDS011;10708;50.824;4.408;2023-03-11T09:09:53;61.23;;;57.60;;
21099;SDS011;10708;50.824;4.408;2023-03-11T09:14:55;74.27;;;69.07;;
21099;SDS011;10708;50.824;4.408;2023-03-11T09:19:59;68.97;;;64.87;;
21099;SDS011;10708;50.824;4.408;2023-03-11T09:25:01;34.80;;;32.87;;
21099;SDS011;10708;50.824;4.408;2023-03-11T09:30:04;27.53;;;25.73;;
21099;SDS011;10708;50.824;4.408;2023-03-11T09:35:09;41.43;;;38.70;;
21099;SDS011;10708;50.824;4.408;2023-03-11T09:40:12;28.87;;;27.00;;
21099;SDS011;10708;50.824;4.408;2023-03-11T09:45:18;29.70;;;28.00;;
21099;SDS011;10708;50.824;4.408;2023-03-11T09:50:30;37.90;;;35.40;;
21099;SDS011;10708;50.824;4.408;2023-03-11T09:55:35;27.10;;;25.17;;
21099;SDS011;10708;50.824;4.408;2023-03-11T10:00:40;25.50;;;23.60;;
21099;SDS011;10708;50.824;4.408;2023-03-11T10:05:44;30.70;;;28.80;;
21099;SDS011;10708;50.824;4.408;2023-03-11T10:10:48;31.93;;;29.83;;
21099;SDS011;10708;50.824;4.408;2023-03-11T10:16:02;43.77;;;41.13;;
21099;SDS011;10708;50.824;4.408;2023-03-11T10:21:17;25.97;;;24.40;;
21099;SDS011;10708;50.824;4.408;2023-03-11T10:26:30;20.13;;;18.53;;
21099;SDS011;10708;50.824;4.408;2023-03-11T10:31:37;36.77;;;34.37;;
21099;SDS011;10708;50.824;4.408;2023-03-11T10:36:49;40.67;;;38.33;;
21099;SDS011;10708;50.824;4.408;2023-03-11T10:41:56;29.83;;;27.77;;
21099;SDS011;10708;50.824;4.408;2023-03-11T10:47:02;50.67;;;47.23;;
21099;SDS011;10708;50.824;4.408;2023-03-11T10:52:06;50.97;;;47.43;;
21099;SDS011;10708;50.824;4.408;2023-03-11T10:57:18;44.37;;;41.50;;
21099;SDS011;10708;50.824;4.408;2023-03-11T11:02:24;40.20;;;37.60;;
21099;SDS011;10708;50.824;4.408;2023-03-11T11:07:31;28.23;;;26.00;;
21099;SDS011;10708;50.824;4.408;2023-03-11T11:12:35;40.03;;;37.37;;
21099;SDS011;10708;50.824;4.408;2023-03-11T11:17:37;28.47;;;26.20;;
21099;SDS011;10708;50.824;4.408;2023-03-11T11:22:47;37.70;;;35.27;;
21099;SDS011;10708;50.824;4.408;2023-03-11T11:27:53;27.03;;;24.60;;
21099;SDS011;10708;50.824;4.408;2023-03-11T11:32:56;31.93;;;29.90;;
21099;SDS011;10708;50.824;4.408;2023-03-11T11:38:31;23.40;;;21.90;;
21099;SDS011;10708;50.824;4.408;2023-03-11T11:43:37;33.43;;;31.17;;
21099;SDS011;10708;50.824;4.408;2023-03-11T11:48:48;20.80;;;19.00;;
21099;SDS011;10708;50.824;4.408;2023-03-11T11:53:58;23.43;;;21.77;;
21099;SDS011;10708;50.824;4.408;2023-03-11T11:59:08;29.00;;;26.63;;
21099;SDS011;10708;50.824;4.408;2023-03-11T12:04:31;27.70;;;25.70;;
21099;SDS011;10708;50.824;4.408;2023-03-11T12:09:48;13.93;;;12.87;;
21099;SDS011;10708;50.824;4.408;2023-03-11T12:15:00;16.87;;;11.27;;
21099;SDS011;10708;50.824;4.408;2023-03-11T12:20:13;26.50;;;24.50;;
21099;SDS011;10708;50.824;4.408;2023-03-11T12:25:24;29.30;;;27.30;;
21099;SDS011;10708;50.824;4.408;2023-03-11T12:30:32;24.57;;;22.63;;
21099;SDS011;10708;50.824;4.408;2023-03-11T12:35:38;53.73;;;50.70;;
21099;SDS011;10708;50.824;4.408;2023-03-11T12:40:50;22.60;;;20.83;;
21099;SDS011;10708;50.824;4.408;2023-03-11T12:46:02;50.43;;;47.77;;
21099;SDS011;10708;50.824;4.408;2023-03-11T12:51:05;483.13;;;149.27;;
21099;SDS011;10708;50.824;4.408;2023-03-11T12:56:30;40.17;;;26.50;;
21099;SDS011;10708;50.824;4.408;2023-03-11T13:01:46;11.50;;;10.67;;
21099;SDS011;10708;50.824;4.408;2023-03-11T13:07:17;470.40;;;150.63;;
21099;SDS011;10708;50.824;4.408;2023-03-11T13:12:38;51.73;;;48.50;;
21099;SDS011;10708;50.824;4.408;2023-03-11T13:17:44;23.20;;;21.67;;
21099;SDS011;10708;50.824;4.408;2023-03-11T13:23:08;27.03;;;24.87;;
21099;SDS011;10708;50.824;4.408;2023-03-11T13:28:29;13.40;;;12.03;;
21099;SDS011;10708;50.824;4.408;2023-03-11T13:33:44;13.30;;;12.50;;
21099;SDS011;10708;50.824;4.408;2023-03-11T13:39:02;19.07;;;17.67;;
21099;SDS011;10708;50.824;4.408;2023-03-11T13:44:26;21.50;;;19.40;;
21099;SDS011;10708;50.824;4.408;2023-03-11T13:49:32;52.50;;;49.47;;
21099;SDS011;10708;50.824;4.408;2023-03-11T13:54:47;24.20;;;22.47;;
21099;SDS011;10708;50.824;4.408;2023-03-11T14:00:05;6.73;;;6.07;;
21099;SDS011;10708;50.824;4.408;2023-03-11T14:05:18;14.20;;;13.07;;
21099;SDS011;10708;50.824;4.408;2023-03-11T14:10:25;19.33;;;18.17;;
21099;SDS011;10708;50.824;4.408;2023-03-11T14:15:30;13.83;;;12.73;;
21099;SDS011;10708;50.824;4.408;2023-03-11T14:20:45;8.10;;;7.50;;
21099;SDS011;10708;50.824;4.408;2023-03-11T14:25:56;13.60;;;12.43;;
21099;SDS011;10708;50.824;4.408;2023-03-11T14:31:01;7.63;;;6.47;;
21099;SDS011;10708;50.824;4.408;2023-03-11T14:36:04;9.13;;;8.27;;
21099;SDS011;10708;50.824;4.408;2023-03-11T14:41:14;11.17;;;7.83;;
21099;SDS011;10708;50.824;4.408;2023-03-11T14:46:19;12.67;;;11.53;;
21099;SDS011;10708;50.824;4.408;2023-03-11T14:51:26;45.43;;;42.43;;
21099;SDS011;10708;50.824;4.408;2023-03-11T14:56:33;10.53;;;9.63;;
21099;SDS011;10708;50.824;4.408;2023-03-11T15:01:41;10.17;;;9.57;;
21099;SDS011;10708;50.824;4.408;2023-03-11T15:06:47;10.23;;;7.03;;
21099;SDS011;10708;50.824;4.408;2023-03-11T15:11:51;5.50;;;5.10;;
21099;SDS011;10708;50.824;4.408;2023-03-11T15:17:09;14.53;;;13.63;;
21099;SDS011;10708;50.824;4.408;2023-03-11T15:22:21;8.70;;;8.07;;
21099;SDS011;10708;50.824;4.408;2023-03-11T15:27:27;8.83;;;8.27;;
21099;SDS011;10708;50.824;4.408;2023-03-11T15:32:39;13.23;;;12.17;;
21099;SDS011;10708;50.824;4.408;2023-03-11T15:37:43;9.90;;;9.30;;
21099;SDS011;10708;50.824;4.408;2023-03-11T15:42:47;7.03;;;6.40;;
21099;SDS011;10708;50.824;4.408;2023-03-11T15:47:51;9.00;;;8.33;;
21099;SDS011;10708;50.824;4.408;2023-03-11T15:52:54;22.97;;;18.20;;
21099;SDS011;10708;50.824;4.408;2023-03-11T15:57:59;14.63;;;13.43;;
21099;SDS011;10708;50.824;4.408;2023-03-11T16:03:07;13.83;;;9.83;;
21099;SDS011;10708;50.824;4.408;2023-03-11T16:08:09;15.80;;;14.80;;
21099;SDS011;10708;50.824;4.408;2023-03-11T16:13:12;8.43;;;7.67;;
21099;SDS011;10708;50.824;4.408;2023-03-11T16:18:17;6.43;;;5.27;;
21099;SDS011;10708;50.824;4.408;2023-03-11T16:23:20;8.00;;;7.27;;
21099;SDS011;10708;50.824;4.408;2023-03-11T16:28:24;36.80;;;33.83;;
21099;SDS011;10708;50.824;4.408;2023-03-11T16:33:28;18.47;;;13.37;;
21099;SDS011;10708;50.824;4.408;2023-03-11T16:38:30;10.77;;;6.27;;
21099;SDS011;10708;50.824;4.408;2023-03-11T16:43:44;9.10;;;7.80;;
21099;SDS011;10708;50.824;4.408;2023-03-11T16:48:47;9.37;;;8.67;;
21099;SDS011;10708;50.824;4.408;2023-03-11T16:53:50;10.57;;;7.37;;
21099;SDS011;10708;50.824;4.408;2023-03-11T16:58:52;25.90;;;23.97;;
21099;SDS011;10708;50.824;4.408;2023-03-11T17:03:56;31.10;;;29.27;;
21099;SDS011;10708;50.824;4.408;2023-03-11T17:08:59;10.30;;;6.43;;
21099;SDS011;10708;50.824;4.408;2023-03-11T17:14:01;12.40;;;11.33;;
21099;SDS011;10708;50.824;4.408;2023-03-11T17:19:05;8.67;;;7.87;;
21099;SDS011;10708;50.824;4.408;2023-03-11T17:24:07;49.53;;;46.90;;
21099;SDS011;10708;50.824;4.408;2023-03-11T17:29:10;53.90;;;50.80;;
21099;SDS011;10708;50.824;4.408;2023-03-11T17:34:14;14.60;;;13.70;;
21099;SDS011;10708;50.824;4.408;2023-03-11T17:39:16;10.93;;;9.63;;
21099;SDS011;10708;50.824;4.408;2023-03-11T17:44:19;8.83;;;8.27;;
21099;SDS011;10708;50.824;4.408;2023-03-11T17:49:23;10.37;;;9.40;;
21099;SDS011;10708;50.824;4.408;2023-03-11T17:54:26;7.43;;;6.83;;
21099;SDS011;10708;50.824;4.408;2023-03-11T17:59:28;8.50;;;7.70;;
21099;SDS011;10708;50.824;4.408;2023-03-11T18:04:32;7.37;;;5.03;;
21099;SDS011;10708;50.824;4.408;2023-03-11T18:09:35;12.27;;;6.40;;
21099;SDS011;10708;50.824;4.408;2023-03-11T18:14:37;10.07;;;6.67;;
21099;SDS011;10708;50.824;4.408;2023-03-11T18:19:41;7.60;;;5.13;;
21099;SDS011;10708;50.824;4.408;2023-03-11T18:24:43;13.07;;;8.63;;
21099;SDS011;10708;50.824;4.408;2023-03-11T18:29:46;11.00;;;9.10;;
21099;SDS011;10708;50.824;4.408;2023-03-11T18:34:49;12.80;;;11.23;;
21099;SDS011;10708;50.824;4.408;2023-03-11T18:39:52;12.17;;;7.77;;
21099;SDS011;10708;50.824;4.408;2023-03-11T18:44:54;15.27;;;11.70;;
21099;SDS011;10708;50.824;4.408;2023-03-11T18:49:58;11.37;;;8.20;;
21099;SDS011;10708;50.824;4.408;2023-03-11T18:55:02;15.13;;;13.57;;
21099;SDS011;10708;50.824;4.408;2023-03-11T19:00:05;16.40;;;10.20;;
21099;SDS011;10708;50.824;4.408;2023-03-11T19:05:10;12.00;;;7.50;;
21099;SDS011;10708;50.824;4.408;2023-03-11T19:10:13;15.97;;;8.10;;
21099;SDS011;10708;50.824;4.408;2023-03-11T19:15:19;11.67;;;10.47;;
21099;SDS011;10708;50.824;4.408;2023-03-11T19:20:24;17.87;;;15.73;;
21099;SDS011;10708;50.824;4.408;2023-03-11T19:25:26;22.10;;;20.10;;
21099;SDS011;10708;50.824;4.408;2023-03-11T19:30:29;21.57;;;19.13;;
21099;SDS011;10708;50.824;4.408;2023-03-11T19:35:33;32.70;;;30.57;;
21099;SDS011;10708;50.824;4.408;2023-03-11T19:40:36;24.57;;;22.83;;
21099;SDS011;10708;50.824;4.408;2023-03-11T19:45:39;20.50;;;18.70;;
21099;SDS011;10708;50.824;4.408;2023-03-11T19:50:43;18.67;;;17.20;;
21099;SDS011;10708;50.824;4.408;2023-03-11T19:55:46;13.87;;;12.30;;
21099;SDS011;10708;50.824;4.408;2023-03-11T20:00:51;16.13;;;14.80;;
21099;SDS011;10708;50.824;4.408;2023-03-11T20:05:54;38.43;;;35.93;;
21099;SDS011;10708;50.824;4.408;2023-03-11T20:10:59;13.07;;;10.13;;
21099;SDS011;10708;50.824;4.408;2023-03-11T20:16:03;10.47;;;8.13;;
21099;SDS011;10708;50.824;4.408;2023-03-11T20:21:09;12.90;;;11.40;;
21099;SDS011;10708;50.824;4.408;2023-03-11T20:26:13;17.00;;;10.17;;
21099;SDS011;10708;50.824;4.408;2023-03-11T20:31:18;16.63;;;11.40;;
21099;SDS011;10708;50.824;4.408;2023-03-11T20:36:24;22.43;;;20.30;;
21099;SDS011;10708;50.824;4.408;2023-03-11T20:41:31;18.97;;;15.37;;
21099;SDS011;10708;50.824;4.408;2023-03-11T20:46:35;15.80;;;14.53;;
21099;SDS011;10708;50.824;4.408;2023-03-11T20:51:38;18.13;;;15.37;;
21099;SDS011;10708;50.824;4.408;2023-03-11T20:56:43;20.33;;;15.37;;
21099;SDS011;10708;50.824;4.408;2023-03-11T21:01:45;14.27;;;12.77;;
21099;SDS011;10708;50.824;4.408;2023-03-11T21:06:50;14.80;;;12.63;;
21099;SDS011;10708;50.824;4.408;2023-03-11T21:11:54;13.73;;;9.83;;
21099;SDS011;10708;50.824;4.408;2023-03-11T21:16:56;13.90;;;12.20;;
21099;SDS011;10708;50.824;4.408;2023-03-11T21:22:00;16.47;;;13.27;;
21099;SDS011;10708;50.824;4.408;2023-03-11T21:27:03;13.03;;;11.73;;
21099;SDS011;10708;50.824;4.408;2023-03-11T21:32:06;15.20;;;10.23;;
21099;SDS011;10708;50.824;4.408;2023-03-11T21:37:10;18.63;;;15.13;;
21099;SDS011;10708;50.824;4.408;2023-03-11T21:42:12;17.17;;;14.37;;
21099;SDS011;10708;50.824;4.408;2023-03-11T21:47:15;16.57;;;12.27;;
21099;SDS011;10708;50.824;4.408;2023-03-11T21:52:19;21.93;;;20.37;;
21099;SDS011;10708;50.824;4.408;2023-03-11T21:57:21;17.53;;;11.90;;
21099;SDS011;10708;50.824;4.408;2023-03-11T22:02:24;17.70;;;11.73;;
21099;SDS011;10708;50.824;4.408;2023-03-11T22:07:28;14.17;;;12.80;;
21099;SDS011;10708;50.824;4.408;2023-03-11T22:12:30;19.03;;;11.70;;
21099;SDS011;10708;50.824;4.408;2023-03-11T22:17:32;14.80;;;11.80;;
21099;SDS011;10708;50.824;4.408;2023-03-11T22:22:36;16.13;;;13.17;;
21099;SDS011;10708;50.824;4.408;2023-03-11T22:27:38;21.73;;;19.93;;
21099;SDS011;10708;50.824;4.408;2023-03-11T22:32:41;21.70;;;19.87;;
21099;SDS011;10708;50.824;4.408;2023-03-11T22:37:45;24.97;;;22.97;;
21099;SDS011;10708;50.824;4.408;2023-03-11T22:42:47;17.73;;;13.47;;
21099;SDS011;10708;50.824;4.408;2023-03-11T22:47:50;24.20;;;22.43;;
21099;SDS011;10708;50.824;4.408;2023-03-11T22:52:55;13.10;;;11.90;;
21099;SDS011;10708;50.824;4.408;2023-03-11T22:57:57;17.63;;;16.33;;
21099;SDS011;10708;50.824;4.408;2023-03-11T23:03:00;10.03;;;7.00;;
21099;SDS011;10708;50.824;4.408;2023-03-11T23:08:04;14.63;;;9.37;;
21099;SDS011;10708;50.824;4.408;2023-03-11T23:13:06;23.17;;;9.90;;
21099;SDS011;10708;50.824;4.408;2023-03-11T23:18:09;16.43;;;10.00;;
21099;SDS011;10708;50.824;4.408;2023-03-11T23:23:14;11.23;;;10.13;;
21099;SDS011;10708;50.824;4.408;2023-03-11T23:28:17;11.37;;;9.23;;
21099;SDS011;10708;50.824;4.408;2023-03-11T23:33:20;13.00;;;10.20;;
21099;SDS011;10708;50.824;4.408;2023-03-11T23:38:24;16.00;;;14.70;;
21099;SDS011;10708;50.824;4.408;2023-03-11T23:43:26;23.20;;;21.17;;
21099;SDS011;10708;50.824;4.408;2023-03-11T23:48:28;28.90;;;26.70;;
21099;SDS011;10708;50.824;4.408;2023-03-11T23:53:33;33.97;;;31.57;;
21099;SDS011;10708;50.824;4.408;2023-03-11T23:58:36;12.43;;;10.77;;
